createdAt,value
2019-01-14T00:00:18.822Z,996.24
2019-01-14T00:01:18.833Z,996.21
2019-01-14T00:02:18.851Z,996.21
2019-01-14T00:03:18.865Z,996.27
2019-01-14T00:04:18.881Z,996.24
2019-01-14T00:05:18.899Z,996.10
2019-01-14T00:06:18.914Z,996.22
2019-01-14T00:07:18.928Z,996.21
2019-01-14T00:08:18.944Z,996.18
2019-01-14T00:09:23.271Z,996.23
2019-01-14T00:10:18.974Z,996.27
2019-01-14T00:11:18.990Z,996.33
2019-01-14T00:12:19.006Z,996.38
2019-01-14T00:13:19.023Z,996.41
2019-01-14T00:14:19.036Z,996.49
2019-01-14T00:15:19.054Z,996.52
2019-01-14T00:16:19.070Z,996.48
2019-01-14T00:17:19.083Z,996.56
2019-01-14T00:18:19.101Z,996.39
2019-01-14T00:19:19.120Z,996.53
2019-01-14T00:20:19.132Z,996.54
2019-01-14T00:21:19.147Z,996.56
2019-01-14T00:22:19.161Z,996.64
2019-01-14T00:23:19.176Z,996.58
2019-01-14T00:24:19.192Z,996.59
2019-01-14T00:25:19.209Z,996.61
2019-01-14T00:26:19.223Z,996.68
2019-01-14T00:27:19.238Z,996.63
2019-01-14T00:28:19.256Z,996.71
2019-01-14T00:29:19.272Z,996.76
2019-01-14T00:30:19.287Z,996.76
2019-01-14T00:31:19.300Z,996.82
2019-01-14T00:32:19.318Z,996.78
2019-01-14T00:33:19.334Z,996.84
2019-01-14T00:34:19.346Z,996.84
2019-01-14T00:35:19.362Z,996.86
2019-01-14T00:36:19.378Z,996.88
2019-01-14T00:37:19.396Z,996.91
2019-01-14T00:38:19.410Z,996.94
2019-01-14T00:39:19.426Z,996.97
2019-01-14T00:40:19.442Z,996.97
2019-01-14T00:41:19.458Z,996.97
2019-01-14T00:42:19.472Z,997.05
2019-01-14T00:43:19.489Z,996.99
2019-01-14T00:44:19.502Z,997.06
2019-01-14T00:45:19.519Z,997.07
2019-01-14T00:46:19.534Z,997.04
2019-01-14T00:47:19.550Z,997.10
2019-01-14T00:48:19.565Z,997.16
2019-01-14T00:49:19.577Z,997.16
2019-01-14T00:50:19.596Z,997.19
2019-01-14T00:51:19.609Z,997.17
2019-01-14T00:52:19.627Z,997.23
2019-01-14T00:53:19.643Z,997.20
2019-01-14T00:54:19.659Z,997.30
2019-01-14T00:55:19.674Z,997.21
2019-01-14T00:56:19.689Z,997.27
2019-01-14T00:57:19.704Z,997.24
2019-01-14T00:58:19.718Z,997.31
2019-01-14T00:59:19.735Z,997.31
2019-01-14T01:00:19.752Z,997.32
2019-01-14T01:01:19.764Z,997.28
2019-01-14T01:02:19.780Z,997.40
2019-01-14T01:03:19.799Z,997.39
2019-01-14T01:04:19.815Z,997.45
2019-01-14T01:05:19.828Z,997.43
2019-01-14T01:06:24.606Z,997.52
2019-01-14T01:07:19.862Z,997.46
2019-01-14T01:08:19.874Z,997.51
2019-01-14T01:09:19.891Z,997.42
2019-01-14T01:10:19.907Z,997.56
2019-01-14T01:11:19.919Z,997.53
2019-01-14T01:12:19.938Z,997.54
2019-01-14T01:13:19.952Z,997.62
2019-01-14T01:14:19.968Z,997.56
2019-01-14T01:15:19.981Z,997.64
2019-01-14T01:16:19.999Z,997.64
2019-01-14T01:17:20.012Z,997.62
2019-01-14T01:18:20.030Z,997.68
2019-01-14T01:19:20.043Z,997.68
2019-01-14T01:20:20.063Z,997.71
2019-01-14T01:21:20.079Z,997.75
2019-01-14T01:22:20.145Z,997.75
2019-01-14T01:23:20.107Z,997.73
2019-01-14T01:24:20.124Z,997.78
2019-01-14T01:25:20.135Z,997.76
2019-01-14T01:26:20.154Z,997.80
2019-01-14T01:27:20.171Z,997.79
2019-01-14T01:28:20.182Z,997.89
2019-01-14T01:29:20.199Z,997.81
2019-01-14T01:30:20.215Z,997.90
2019-01-14T01:31:20.228Z,997.90
2019-01-14T01:32:20.246Z,997.96
2019-01-14T01:33:20.261Z,998.01
2019-01-14T01:34:20.278Z,998.07
2019-01-14T01:35:20.290Z,998.11
2019-01-14T01:36:20.308Z,998.14
2019-01-14T01:37:20.320Z,998.17
2019-01-14T01:38:20.336Z,998.13
2019-01-14T01:39:20.354Z,998.15
2019-01-14T01:40:20.371Z,998.14
2019-01-14T01:41:20.384Z,998.16
2019-01-14T01:42:20.401Z,998.19
2019-01-14T01:43:20.419Z,998.20
2019-01-14T01:44:20.431Z,998.25
2019-01-14T01:45:20.446Z,998.29
2019-01-14T01:46:20.460Z,998.31
2019-01-14T01:47:20.478Z,998.31
2019-01-14T01:48:20.496Z,998.39
2019-01-14T01:49:20.508Z,998.34
2019-01-14T01:50:20.521Z,998.43
2019-01-14T01:51:20.537Z,998.42
2019-01-14T01:52:20.553Z,998.41
2019-01-14T01:53:20.568Z,998.43
2019-01-14T01:54:20.586Z,998.45
2019-01-14T01:55:20.602Z,998.49
2019-01-14T01:56:20.615Z,998.47
2019-01-14T01:57:20.632Z,998.51
2019-01-14T01:58:20.649Z,998.47
2019-01-14T01:59:20.664Z,998.59
2019-01-14T02:00:20.680Z,998.55
2019-01-14T02:01:20.694Z,998.59
2019-01-14T02:02:20.707Z,998.64
2019-01-14T02:03:20.726Z,998.68
2019-01-14T02:04:20.739Z,998.62
2019-01-14T02:05:20.752Z,998.64
2019-01-14T02:06:20.771Z,998.64
2019-01-14T02:07:20.786Z,998.68
2019-01-14T02:08:20.800Z,998.69
2019-01-14T02:09:20.814Z,998.71
2019-01-14T02:10:20.832Z,998.78
2019-01-14T02:11:20.849Z,998.77
2019-01-14T02:12:20.867Z,998.77
2019-01-14T02:13:20.880Z,998.76
2019-01-14T02:14:20.895Z,998.73
2019-01-14T02:15:20.912Z,998.80
2019-01-14T02:16:20.923Z,998.77
2019-01-14T02:17:20.940Z,998.81
2019-01-14T02:18:20.956Z,998.84
2019-01-14T02:19:20.969Z,998.88
2019-01-14T02:20:20.985Z,998.84
2019-01-14T02:21:20.999Z,998.87
2019-01-14T02:22:21.018Z,998.90
2019-01-14T02:23:21.031Z,998.93
2019-01-14T02:24:21.048Z,998.91
2019-01-14T02:25:21.062Z,998.95
2019-01-14T02:26:21.078Z,998.97
2019-01-14T02:27:21.095Z,998.96
2019-01-14T02:28:21.159Z,999.03
2019-01-14T02:29:21.123Z,999.01
2019-01-14T02:30:21.138Z,999.07
2019-01-14T02:31:21.156Z,999.09
2019-01-14T02:32:21.168Z,999.09
2019-01-14T02:33:21.192Z,999.13
2019-01-14T02:34:21.198Z,999.20
2019-01-14T02:35:21.214Z,999.17
2019-01-14T02:36:21.229Z,999.27
2019-01-14T02:37:21.245Z,999.26
2019-01-14T02:38:21.263Z,999.30
2019-01-14T02:39:21.278Z,999.32
2019-01-14T02:40:21.293Z,999.36
2019-01-14T02:41:21.309Z,999.38
2019-01-14T02:42:21.323Z,999.38
2019-01-14T02:43:21.339Z,999.34
2019-01-14T02:44:21.352Z,999.32
2019-01-14T02:45:21.418Z,999.43
2019-01-14T02:46:21.386Z,999.40
2019-01-14T02:47:21.399Z,999.42
2019-01-14T02:48:21.413Z,999.44
2019-01-14T02:49:21.427Z,999.45
2019-01-14T02:50:21.447Z,999.51
2019-01-14T02:51:21.462Z,999.60
2019-01-14T02:52:21.478Z,999.59
2019-01-14T02:53:21.492Z,999.64
2019-01-14T02:54:21.504Z,999.62
2019-01-14T02:55:21.519Z,999.60
2019-01-14T02:56:21.535Z,999.59
2019-01-14T02:57:21.552Z,999.57
2019-01-14T02:58:21.570Z,999.58
2019-01-14T02:59:21.595Z,999.61
2019-01-14T03:00:21.599Z,999.69
2019-01-14T03:01:21.611Z,999.68
2019-01-14T03:02:21.631Z,999.78
2019-01-14T03:03:21.641Z,999.73
2019-01-14T03:04:21.657Z,999.76
2019-01-14T03:05:21.671Z,999.79
2019-01-14T03:06:21.690Z,999.79
2019-01-14T03:07:21.704Z,999.79
2019-01-14T03:08:21.717Z,999.80
2019-01-14T03:09:21.735Z,999.83
2019-01-14T03:10:21.747Z,999.85
2019-01-14T03:11:21.764Z,999.87
2019-01-14T03:12:21.781Z,999.80
2019-01-14T03:13:21.793Z,999.83
2019-01-14T03:14:21.812Z,999.85
2019-01-14T03:15:21.846Z,999.87
2019-01-14T03:16:21.842Z,999.85
2019-01-14T03:17:21.855Z,999.90
2019-01-14T03:18:21.871Z,999.91
2019-01-14T03:19:21.887Z,999.92
2019-01-14T03:20:21.899Z,999.96
2019-01-14T03:21:21.915Z,999.92
2019-01-14T03:22:21.932Z,999.94
2019-01-14T03:23:21.947Z,999.96
2019-01-14T03:24:21.963Z,999.94
2019-01-14T03:25:21.979Z,999.98
2019-01-14T03:26:21.990Z,1000.00
2019-01-14T03:27:22.009Z,1000.04
2019-01-14T03:28:22.021Z,1000.02
2019-01-14T03:29:22.036Z,1000.04
2019-01-14T03:30:22.058Z,1000.10
2019-01-14T03:31:22.068Z,1000.09
2019-01-14T03:32:22.092Z,1000.11
2019-01-14T03:33:22.102Z,1000.15
2019-01-14T03:34:22.112Z,1000.09
2019-01-14T03:35:22.130Z,1000.12
2019-01-14T03:36:22.143Z,1000.12
2019-01-14T03:37:22.162Z,1000.12
2019-01-14T03:38:22.172Z,1000.14
2019-01-14T03:39:22.191Z,1000.19
2019-01-14T03:40:22.206Z,1000.26
2019-01-14T03:41:22.222Z,1000.23
2019-01-14T03:42:22.238Z,1000.26
2019-01-14T03:43:22.249Z,1000.22
2019-01-14T03:44:22.267Z,1000.24
2019-01-14T03:45:22.278Z,1000.20
2019-01-14T03:46:22.295Z,1000.24
2019-01-14T03:47:22.313Z,1000.26
2019-01-14T03:48:22.327Z,1000.25
2019-01-14T03:49:22.339Z,1000.23
2019-01-14T03:50:22.357Z,1000.26
2019-01-14T03:51:22.371Z,1000.33
2019-01-14T03:52:22.388Z,1000.40
2019-01-14T03:53:22.404Z,1000.41
2019-01-14T03:54:22.421Z,1000.42
2019-01-14T03:55:22.431Z,1000.44
2019-01-14T03:56:22.447Z,1000.44
2019-01-14T03:57:22.460Z,1000.40
2019-01-14T03:58:22.478Z,1000.43
2019-01-14T03:59:22.496Z,1000.46
2019-01-14T04:00:22.510Z,1000.40
2019-01-14T04:01:22.521Z,1000.44
2019-01-14T04:02:22.537Z,1000.42
2019-01-14T04:03:22.554Z,1000.43
2019-01-14T04:04:22.571Z,1000.47
2019-01-14T04:05:22.584Z,1000.43
2019-01-14T04:06:22.597Z,1000.53
2019-01-14T04:07:22.612Z,1000.49
2019-01-14T04:08:22.628Z,1000.47
2019-01-14T04:09:22.642Z,1000.49
2019-01-14T04:10:22.662Z,1000.47
2019-01-14T04:11:22.675Z,1000.50
2019-01-14T04:12:22.691Z,1000.50
2019-01-14T04:13:22.706Z,1000.49
2019-01-14T04:14:22.720Z,1000.55
2019-01-14T04:15:22.740Z,1000.49
2019-01-14T04:16:22.752Z,1000.54
2019-01-14T04:17:22.763Z,1000.54
2019-01-14T04:18:22.779Z,1000.53
2019-01-14T04:19:22.796Z,1000.53
2019-01-14T04:20:22.809Z,1000.55
2019-01-14T04:21:22.825Z,1000.59
2019-01-14T04:22:22.839Z,1000.64
2019-01-14T04:23:22.854Z,1000.64
2019-01-14T04:24:22.873Z,1000.68
2019-01-14T04:25:22.884Z,1000.66
2019-01-14T04:26:22.899Z,1000.68
2019-01-14T04:27:22.918Z,1000.72
2019-01-14T04:28:22.930Z,1000.70
2019-01-14T04:29:22.946Z,1000.73
2019-01-14T04:30:22.962Z,1000.77
2019-01-14T04:31:22.974Z,1000.77
2019-01-14T04:32:22.994Z,1000.73
2019-01-14T04:33:23.007Z,1000.76
2019-01-14T04:34:23.022Z,1000.78
2019-01-14T04:35:23.039Z,1000.83
2019-01-14T04:36:23.058Z,1000.79
2019-01-14T04:37:23.064Z,1000.85
2019-01-14T04:38:23.082Z,1000.84
2019-01-14T04:39:23.098Z,1000.86
2019-01-14T04:40:23.111Z,1000.82
2019-01-14T04:41:23.125Z,1000.82
2019-01-14T04:42:23.140Z,1000.81
2019-01-14T04:43:23.159Z,1000.78
2019-01-14T04:44:23.174Z,1000.79
2019-01-14T04:45:23.187Z,1000.83
2019-01-14T04:46:23.204Z,1000.84
2019-01-14T04:47:23.218Z,1000.82
2019-01-14T04:48:23.236Z,1000.91
2019-01-14T04:49:23.251Z,1000.92
2019-01-14T04:50:23.266Z,1000.90
2019-01-14T04:51:23.278Z,1000.95
2019-01-14T04:52:23.295Z,1000.90
2019-01-14T04:53:23.309Z,1000.91
2019-01-14T04:54:23.336Z,1000.89
2019-01-14T04:55:23.339Z,1000.94
2019-01-14T04:56:23.354Z,1000.89
2019-01-14T04:57:23.371Z,1000.92
2019-01-14T04:58:23.383Z,1000.94
2019-01-14T04:59:23.401Z,1000.91
2019-01-14T05:00:23.415Z,1000.94
2019-01-14T05:01:23.429Z,1000.93
2019-01-14T05:02:23.446Z,1000.94
2019-01-14T05:03:23.459Z,1000.91
2019-01-14T05:04:23.475Z,1001.01
2019-01-14T05:05:23.490Z,1001.03
2019-01-14T05:06:23.506Z,1001.02
2019-01-14T05:07:29.470Z,1001.04
2019-01-14T05:08:23.535Z,1001.06
2019-01-14T05:09:23.554Z,1001.13
2019-01-14T05:10:23.567Z,1001.13
2019-01-14T05:11:23.580Z,1001.12
2019-01-14T05:12:23.598Z,1001.16
2019-01-14T05:13:23.613Z,1001.20
2019-01-14T05:14:23.625Z,1001.20
2019-01-14T05:15:23.643Z,1001.22
2019-01-14T05:16:23.659Z,1001.21
2019-01-14T05:17:23.671Z,1001.18
2019-01-14T05:18:23.692Z,1001.25
2019-01-14T05:19:23.704Z,1001.28
2019-01-14T05:20:23.727Z,1001.24
2019-01-14T05:21:23.732Z,1001.26
2019-01-14T05:22:23.747Z,1001.29
2019-01-14T05:23:23.761Z,1001.35
2019-01-14T05:24:23.779Z,1001.41
2019-01-14T05:25:23.794Z,1001.43
2019-01-14T05:26:23.808Z,1001.42
2019-01-14T05:27:23.823Z,1001.43
2019-01-14T05:28:23.838Z,1001.46
2019-01-14T05:29:23.854Z,1001.45
2019-01-14T05:30:23.870Z,1001.44
2019-01-14T05:31:23.881Z,1001.44
2019-01-14T05:32:23.897Z,1001.45
2019-01-14T05:33:23.916Z,1001.45
2019-01-14T05:34:23.928Z,1001.45
2019-01-14T05:35:23.944Z,1001.51
2019-01-14T05:36:23.964Z,1001.52
2019-01-14T05:37:23.975Z,1001.55
2019-01-14T05:38:23.990Z,1001.56
2019-01-14T05:39:24.006Z,1001.60
2019-01-14T05:40:24.022Z,1001.60
2019-01-14T05:41:24.032Z,1001.63
2019-01-14T05:42:24.072Z,1001.68
2019-01-14T05:43:24.063Z,1001.69
2019-01-14T05:44:24.079Z,1001.74
2019-01-14T05:45:24.097Z,1001.76
2019-01-14T05:46:24.112Z,1001.74
2019-01-14T05:47:24.127Z,1001.76
2019-01-14T05:48:24.139Z,1001.76
2019-01-14T05:49:24.154Z,1001.82
2019-01-14T05:50:24.171Z,1001.77
2019-01-14T05:51:24.183Z,1001.77
2019-01-14T05:52:24.201Z,1001.78
2019-01-14T05:53:24.215Z,1001.82
2019-01-14T05:54:24.229Z,1001.80
2019-01-14T05:55:24.244Z,1001.80
2019-01-14T05:56:24.259Z,1001.82
2019-01-14T05:57:24.273Z,1001.86
2019-01-14T05:58:24.292Z,1001.85
2019-01-14T05:59:24.304Z,1001.89
2019-01-14T06:00:24.320Z,1001.88
2019-01-14T06:01:24.334Z,1001.92
2019-01-14T06:02:24.350Z,1001.89
2019-01-14T06:03:24.366Z,1001.94
2019-01-14T06:04:24.381Z,1001.96
2019-01-14T06:05:24.401Z,1001.97
2019-01-14T06:06:24.409Z,1001.96
2019-01-14T06:07:24.424Z,1001.98
2019-01-14T06:08:24.443Z,1001.98
2019-01-14T06:09:24.454Z,1002.01
2019-01-14T06:10:24.469Z,1001.99
2019-01-14T06:11:24.487Z,1002.04
2019-01-14T06:12:24.504Z,1002.01
2019-01-14T06:13:24.523Z,1002.09
2019-01-14T06:14:24.531Z,1002.05
2019-01-14T06:15:24.550Z,1002.03
2019-01-14T06:16:24.574Z,1002.10
2019-01-14T06:17:24.578Z,1002.13
2019-01-14T06:18:24.593Z,1002.11
2019-01-14T06:19:24.606Z,1002.10
2019-01-14T06:20:24.624Z,1002.10
2019-01-14T06:21:24.635Z,1002.16
2019-01-14T06:22:24.650Z,1002.18
2019-01-14T06:23:24.666Z,1002.13
2019-01-14T06:24:24.681Z,1002.15
2019-01-14T06:25:24.700Z,1002.14
2019-01-14T06:26:24.713Z,1002.10
2019-01-14T06:27:24.728Z,1002.16
2019-01-14T06:28:24.744Z,1002.16
2019-01-14T06:29:24.759Z,1002.21
2019-01-14T06:30:24.775Z,1002.12
2019-01-14T06:31:24.788Z,1002.21
2019-01-14T06:32:24.804Z,1002.21
2019-01-14T06:33:24.817Z,1002.24
2019-01-14T06:34:24.859Z,1002.22
2019-01-14T06:35:24.852Z,1002.23
2019-01-14T06:36:24.862Z,1002.25
2019-01-14T06:37:24.877Z,1002.25
2019-01-14T06:38:24.892Z,1002.26
2019-01-14T06:39:24.909Z,1002.22
2019-01-14T06:40:24.924Z,1002.25
2019-01-14T06:41:24.939Z,1002.23
2019-01-14T06:42:24.954Z,1002.24
2019-01-14T06:43:24.967Z,1002.21
2019-01-14T06:44:25.005Z,1002.22
2019-01-14T06:45:25.002Z,1002.22
2019-01-14T06:46:25.014Z,1002.26
2019-01-14T06:47:25.029Z,1002.25
2019-01-14T06:48:25.043Z,1002.25
2019-01-14T06:49:25.062Z,1002.29
2019-01-14T06:50:25.072Z,1002.30
2019-01-14T06:51:25.090Z,1002.36
2019-01-14T06:52:25.106Z,1002.36
2019-01-14T06:53:25.117Z,1002.38
2019-01-14T06:54:25.132Z,1002.40
2019-01-14T06:55:25.151Z,1002.44
2019-01-14T06:56:25.164Z,1002.43
2019-01-14T06:57:25.178Z,1002.44
2019-01-14T06:58:25.194Z,1002.45
2019-01-14T06:59:25.209Z,1002.43
2019-01-14T07:00:25.225Z,1002.49
2019-01-14T07:01:25.239Z,1002.53
2019-01-14T07:02:25.253Z,1002.46
2019-01-14T07:03:25.267Z,1002.57
2019-01-14T07:04:25.297Z,1002.54
2019-01-14T07:05:25.299Z,1002.53
2019-01-14T07:06:25.312Z,1002.51
2019-01-14T07:07:25.329Z,1002.57
2019-01-14T07:08:25.345Z,1002.54
2019-01-14T07:09:25.358Z,1002.61
2019-01-14T07:10:25.375Z,1002.68
2019-01-14T07:11:25.389Z,1002.70
2019-01-14T07:12:25.404Z,1002.71
2019-01-14T07:13:25.417Z,1002.70
2019-01-14T07:14:25.432Z,1002.74
2019-01-14T07:15:25.447Z,1002.79
2019-01-14T07:16:25.463Z,1002.81
2019-01-14T07:17:25.475Z,1002.85
2019-01-14T07:18:25.492Z,1002.82
2019-01-14T07:19:25.508Z,1002.89
2019-01-14T07:20:25.522Z,1002.86
2019-01-14T07:21:25.541Z,1002.89
2019-01-14T07:22:25.852Z,1002.92
2019-01-14T07:23:25.567Z,1002.94
2019-01-14T07:24:25.583Z,1002.93
2019-01-14T07:25:25.594Z,1002.96
2019-01-14T07:26:25.609Z,1002.94
2019-01-14T07:27:25.626Z,1003.02
2019-01-14T07:28:25.639Z,1003.08
2019-01-14T07:29:25.656Z,1003.12
2019-01-14T07:30:25.669Z,1003.15
2019-01-14T07:31:25.687Z,1003.17
2019-01-14T07:32:25.701Z,1003.15
2019-01-14T07:33:25.714Z,1003.18
2019-01-14T07:34:25.727Z,1003.19
2019-01-14T07:35:25.746Z,1003.27
2019-01-14T07:36:25.758Z,1003.17
2019-01-14T07:37:25.775Z,1003.21
2019-01-14T07:38:25.789Z,1003.25
2019-01-14T07:39:25.805Z,1003.24
2019-01-14T07:40:25.818Z,1003.26
2019-01-14T07:41:25.831Z,1003.30
2019-01-14T07:42:25.850Z,1003.36
2019-01-14T07:43:25.862Z,1003.29
2019-01-14T07:44:25.908Z,1003.44
2019-01-14T07:45:25.890Z,1003.34
2019-01-14T07:46:25.907Z,1003.39
2019-01-14T07:47:25.922Z,1003.43
2019-01-14T07:48:25.938Z,1003.46
2019-01-14T07:49:25.952Z,1003.47
2019-01-14T07:50:25.965Z,1003.42
2019-01-14T07:51:25.983Z,1003.51
2019-01-14T07:52:25.999Z,1003.51
2019-01-14T07:53:26.009Z,1003.53
2019-01-14T07:54:26.026Z,1003.58
2019-01-14T07:55:26.039Z,1003.51
2019-01-14T07:56:26.056Z,1003.48
2019-01-14T07:57:26.072Z,1003.59
2019-01-14T07:58:26.085Z,1003.65
2019-01-14T07:59:26.101Z,1003.66
2019-01-14T08:00:26.117Z,1003.70
2019-01-14T08:01:26.127Z,1003.67
2019-01-14T08:02:26.145Z,1003.69
2019-01-14T08:03:27.151Z,1003.68
2019-01-14T08:04:26.173Z,1003.66
2019-01-14T08:05:26.191Z,1003.77
2019-01-14T08:06:26.205Z,1003.81
2019-01-14T08:07:26.223Z,1003.83
2019-01-14T08:08:26.232Z,1003.85
2019-01-14T08:09:26.246Z,1003.78
2019-01-14T08:10:26.265Z,1003.86
2019-01-14T08:11:26.278Z,1003.86
2019-01-14T08:12:26.293Z,1003.94
2019-01-14T08:13:26.310Z,1003.87
2019-01-14T08:14:26.322Z,1003.87
2019-01-14T08:15:26.339Z,1003.84
2019-01-14T08:16:26.354Z,1003.83
2019-01-14T08:17:26.367Z,1003.78
2019-01-14T08:18:26.383Z,1003.78
2019-01-14T08:19:26.394Z,1003.82
2019-01-14T08:20:26.410Z,1003.85
2019-01-14T08:21:26.425Z,1003.91
2019-01-14T08:22:26.441Z,1003.96
2019-01-14T08:23:26.455Z,1004.01
2019-01-14T08:24:26.473Z,1004.04
2019-01-14T08:25:26.483Z,1004.01
2019-01-14T08:26:26.497Z,1004.01
2019-01-14T08:27:26.511Z,1004.06
2019-01-14T08:28:26.528Z,1004.12
2019-01-14T08:29:26.540Z,1004.20
2019-01-14T08:30:26.561Z,1004.21
2019-01-14T08:31:26.575Z,1004.20
2019-01-14T08:32:26.588Z,1004.20
2019-01-14T08:33:26.599Z,1004.19
2019-01-14T08:34:26.615Z,1004.23
2019-01-14T08:35:26.630Z,1004.25
2019-01-14T08:36:26.643Z,1004.30
2019-01-14T08:37:26.659Z,1004.28
2019-01-14T08:38:26.672Z,1004.28
2019-01-14T08:39:26.689Z,1004.30
2019-01-14T08:40:26.704Z,1004.35
2019-01-14T08:41:26.721Z,1004.33
2019-01-14T08:42:26.733Z,1004.35
2019-01-14T08:43:26.746Z,1004.44
2019-01-14T08:44:26.761Z,1004.46
2019-01-14T08:45:26.774Z,1004.50
2019-01-14T08:46:26.844Z,1004.53
2019-01-14T08:47:26.804Z,1004.57
2019-01-14T08:48:26.819Z,1004.58
2019-01-14T08:49:27.083Z,1004.63
2019-01-14T08:50:26.849Z,1004.61
2019-01-14T08:51:26.913Z,1004.66
2019-01-14T08:52:26.880Z,1004.66
2019-01-14T08:53:26.899Z,1004.65
2019-01-14T08:54:26.909Z,1004.66
2019-01-14T08:55:26.921Z,1004.72
2019-01-14T08:56:26.940Z,1004.64
2019-01-14T08:57:26.955Z,1004.73
2019-01-14T08:58:26.969Z,1004.73
2019-01-14T08:59:26.983Z,1004.65
2019-01-14T09:00:26.998Z,1004.71
2019-01-14T09:01:27.008Z,1004.76
2019-01-14T09:02:27.024Z,1004.72
2019-01-14T09:03:27.044Z,1004.74
2019-01-14T09:04:32.311Z,1004.67
2019-01-14T09:05:27.071Z,1004.73
2019-01-14T09:06:27.081Z,1004.73
2019-01-14T09:07:27.098Z,1004.74
2019-01-14T09:08:28.737Z,1004.79
2019-01-14T09:09:27.124Z,1004.82
2019-01-14T09:10:27.390Z,1004.79
2019-01-14T09:11:27.154Z,1004.77
2019-01-14T09:12:27.271Z,1004.87
2019-01-14T09:13:27.383Z,1004.86
2019-01-14T09:14:27.200Z,1004.89
2019-01-14T09:15:27.213Z,1004.96
2019-01-14T09:16:27.230Z,1004.96
2019-01-14T09:17:27.241Z,1004.95
2019-01-14T09:18:27.259Z,1005.05
2019-01-14T09:19:27.273Z,1004.95
2019-01-14T09:20:27.286Z,1005.06
2019-01-14T09:21:27.301Z,1005.02
2019-01-14T09:22:27.317Z,1005.00
2019-01-14T09:23:27.330Z,1005.03
2019-01-14T09:24:27.347Z,1005.04
2019-01-14T09:25:27.358Z,1005.03
2019-01-14T09:26:27.375Z,1005.08
2019-01-14T09:27:27.392Z,1005.04
2019-01-14T09:28:27.405Z,1005.12
2019-01-14T09:29:27.418Z,1005.08
2019-01-14T09:30:27.432Z,1005.07
2019-01-14T09:31:27.447Z,1005.10
2019-01-14T09:32:27.464Z,1005.17
2019-01-14T09:33:27.479Z,1005.17
2019-01-14T09:34:27.493Z,1005.18
2019-01-14T09:35:27.506Z,1005.23
2019-01-14T09:36:27.523Z,1005.17
2019-01-14T09:37:27.535Z,1005.19
2019-01-14T09:38:27.556Z,1005.18
2019-01-14T09:39:27.567Z,1005.13
2019-01-14T09:40:27.579Z,1005.13
2019-01-14T09:41:27.593Z,1005.15
2019-01-14T09:42:28.093Z,1005.16
2019-01-14T09:43:27.625Z,1005.21
2019-01-14T09:44:27.638Z,1005.23
2019-01-14T09:45:27.655Z,1005.16
2019-01-14T09:46:27.666Z,1005.17
2019-01-14T09:47:27.686Z,1005.12
2019-01-14T09:48:27.696Z,1005.14
2019-01-14T09:49:27.715Z,1005.11
2019-01-14T09:50:27.828Z,1005.16
2019-01-14T09:51:27.743Z,1005.14
2019-01-14T09:52:28.554Z,1005.11
2019-01-14T09:53:27.772Z,1005.15
2019-01-14T09:54:27.785Z,1005.20
2019-01-14T09:55:27.800Z,1005.20
2019-01-14T09:56:27.820Z,1005.20
2019-01-14T09:57:27.830Z,1005.19
2019-01-14T09:58:27.885Z,1005.25
2019-01-14T09:59:27.862Z,1005.22
2019-01-14T10:00:27.874Z,1005.20
2019-01-14T10:01:27.888Z,1005.17
2019-01-14T10:02:27.906Z,1005.18
2019-01-14T10:03:27.918Z,1005.21
2019-01-14T10:04:27.936Z,1005.22
2019-01-14T10:05:27.950Z,1005.26
2019-01-14T10:06:27.982Z,1005.24
2019-01-14T10:07:28.284Z,1005.26
2019-01-14T10:08:27.996Z,1005.23
2019-01-14T10:09:28.010Z,1005.26
2019-01-14T10:10:28.024Z,1005.32
2019-01-14T10:11:28.038Z,1005.30
2019-01-14T10:12:28.052Z,1005.29
2019-01-14T10:13:28.071Z,1005.29
2019-01-14T10:14:28.081Z,1005.28
2019-01-14T10:15:28.153Z,1005.23
2019-01-14T10:16:28.115Z,1005.25
2019-01-14T10:17:28.147Z,1005.18
2019-01-14T10:18:28.140Z,1005.34
2019-01-14T10:19:28.156Z,1005.23
2019-01-14T10:20:28.171Z,1005.28
2019-01-14T10:21:28.184Z,1005.36
2019-01-14T10:22:28.205Z,1005.38
2019-01-14T10:23:28.220Z,1005.36
2019-01-14T10:24:28.233Z,1005.35
2019-01-14T10:25:28.250Z,1005.42
2019-01-14T10:26:28.260Z,1005.45
2019-01-14T10:27:28.275Z,1005.45
2019-01-14T10:28:28.290Z,1005.45
2019-01-14T10:29:28.307Z,1005.53
2019-01-14T10:30:28.321Z,1005.51
2019-01-14T10:31:28.337Z,1005.56
2019-01-14T10:32:28.352Z,1005.54
2019-01-14T10:33:28.363Z,1005.52
2019-01-14T10:34:28.382Z,1005.55
2019-01-14T10:35:28.397Z,1005.53
2019-01-14T10:36:28.411Z,1005.55
2019-01-14T10:37:28.427Z,1005.58
2019-01-14T10:38:28.439Z,1005.56
2019-01-14T10:39:28.503Z,1005.56
2019-01-14T10:40:28.471Z,1005.57
2019-01-14T10:41:28.483Z,1005.59
2019-01-14T10:42:28.500Z,1005.51
2019-01-14T10:43:28.517Z,1005.62
2019-01-14T10:44:28.579Z,1005.73
2019-01-14T10:45:28.545Z,1005.69
2019-01-14T10:46:28.558Z,1005.68
2019-01-14T10:47:28.578Z,1005.68
2019-01-14T10:48:28.589Z,1005.75
2019-01-14T10:49:28.654Z,1005.70
2019-01-14T10:50:28.619Z,1005.68
2019-01-14T10:51:28.635Z,1005.76
2019-01-14T10:52:28.651Z,1005.73
2019-01-14T10:53:28.679Z,1005.72
2019-01-14T10:54:28.685Z,1005.83
2019-01-14T10:55:28.701Z,1005.78
2019-01-14T10:56:28.710Z,1005.92
2019-01-14T10:57:28.728Z,1005.82
2019-01-14T10:58:28.742Z,1005.89
2019-01-14T10:59:28.759Z,1005.88
2019-01-14T11:00:28.772Z,1005.90
2019-01-14T11:01:29.086Z,1005.86
2019-01-14T11:02:28.799Z,1005.78
2019-01-14T11:03:28.815Z,1005.85
2019-01-14T11:04:28.830Z,1005.90
2019-01-14T11:05:28.846Z,1005.87
2019-01-14T11:06:28.862Z,1005.81
2019-01-14T11:07:28.878Z,1005.89
2019-01-14T11:08:28.890Z,1005.89
2019-01-14T11:09:28.905Z,1005.95
2019-01-14T11:10:28.922Z,1005.99
2019-01-14T11:11:28.936Z,1005.99
2019-01-14T11:12:28.954Z,1005.94
2019-01-14T11:13:28.968Z,1005.97
2019-01-14T11:14:28.981Z,1005.96
2019-01-14T11:15:29.004Z,1005.96
2019-01-14T11:16:29.023Z,1006.00
2019-01-14T11:17:29.028Z,1006.11
2019-01-14T11:18:29.047Z,1006.04
2019-01-14T11:19:29.059Z,1006.05
2019-01-14T11:20:29.074Z,1006.03
2019-01-14T11:21:29.089Z,1006.06
2019-01-14T11:22:29.107Z,1006.07
2019-01-14T11:23:29.121Z,1006.11
2019-01-14T11:24:29.134Z,1006.20
2019-01-14T11:25:29.148Z,1006.25
2019-01-14T11:26:29.161Z,1006.17
2019-01-14T11:27:29.176Z,1006.22
2019-01-14T11:28:29.194Z,1006.24
2019-01-14T11:29:29.210Z,1006.33
2019-01-14T11:30:29.222Z,1006.25
2019-01-14T11:31:29.237Z,1006.27
2019-01-14T11:32:29.305Z,1006.25
2019-01-14T11:33:29.266Z,1006.32
2019-01-14T11:34:29.281Z,1006.31
2019-01-14T11:35:29.301Z,1006.34
2019-01-14T11:36:29.314Z,1006.20
2019-01-14T11:37:29.327Z,1006.34
2019-01-14T11:38:29.343Z,1006.21
2019-01-14T11:39:29.357Z,1006.38
2019-01-14T11:40:29.377Z,1006.27
2019-01-14T11:41:29.389Z,1006.27
2019-01-14T11:42:29.401Z,1006.34
2019-01-14T11:43:29.419Z,1006.37
2019-01-14T11:44:29.432Z,1006.41
2019-01-14T11:45:29.449Z,1006.39
2019-01-14T11:46:29.461Z,1006.39
2019-01-14T11:47:29.476Z,1006.44
2019-01-14T11:48:29.494Z,1006.48
2019-01-14T11:49:29.506Z,1006.53
2019-01-14T11:50:29.524Z,1006.41
2019-01-14T11:51:29.538Z,1006.41
2019-01-14T11:52:29.555Z,1006.31
2019-01-14T11:53:29.573Z,1006.33
2019-01-14T11:54:29.584Z,1006.29
2019-01-14T11:55:29.600Z,1006.28
2019-01-14T11:56:29.614Z,1006.27
2019-01-14T11:57:29.628Z,1006.25
2019-01-14T11:58:29.645Z,1006.25
2019-01-14T11:59:29.658Z,1006.30
2019-01-14T12:00:36.293Z,1006.31
2019-01-14T12:01:29.687Z,1006.34
2019-01-14T12:02:29.701Z,1006.24
2019-01-14T12:03:29.717Z,1006.27
2019-01-14T12:04:29.734Z,1006.24
2019-01-14T12:05:29.747Z,1006.36
2019-01-14T12:06:29.762Z,1006.35
2019-01-14T12:07:29.778Z,1006.41
2019-01-14T12:08:29.792Z,1006.44
2019-01-14T12:09:29.809Z,1006.49
2019-01-14T12:10:29.822Z,1006.47
2019-01-14T12:11:29.837Z,1006.52
2019-01-14T12:12:29.852Z,1006.55